sensor_id;sensor_type;location;lat;lon;timestamp;P1;durP1;ratioP1;P2;durP2;ratioP2
71959;SDS011;59832;51.146;14.024;2023-06-24T04:02:31;49.13;;;31.15;;
71959;SDS011;59832;51.146;14.024;2023-06-24T04:04:58;42.85;;;29.40;;
71959;SDS011;59832;51.146;14.024;2023-06-24T04:07:25;41.33;;;28.30;;
71959;SDS011;59832;51.146;14.024;2023-06-24T04:09:55;42.95;;;27.80;;
71959;SDS011;59832;51.146;14.024;2023-06-24T04:12:22;43.42;;;28.48;;
71959;SDS011;59832;51.146;14.024;2023-06-24T04:14:49;41.38;;;27.02;;
71959;SDS011;59832;51.146;14.024;2023-06-24T04:17:15;38.70;;;25.75;;
71959;SDS011;59832;51.146;14.024;2023-06-24T04:19:42;42.23;;;26.83;;
71959;SDS011;59832;51.146;14.024;2023-06-24T04:22:08;40.20;;;26.60;;
71959;SDS011;59832;51.146;14.024;2023-06-24T04:24:35;38.80;;;24.87;;
71959;SDS011;59832;51.146;14.024;2023-06-24T04:27:02;38.55;;;25.48;;
71959;SDS011;59832;51.146;14.024;2023-06-24T04:29:28;38.47;;;23.83;;
71959;SDS011;59832;51.146;14.024;2023-06-24T04:31:55;41.17;;;24.23;;
71959;SDS011;59832;51.146;14.024;2023-06-24T04:34:21;38.13;;;23.37;;
71959;SDS011;59832;51.146;14.024;2023-06-24T04:36:47;33.80;;;23.23;;
71959;SDS011;59832;51.146;14.024;2023-06-24T04:39:14;29.08;;;21.75;;
71959;SDS011;59832;51.146;14.024;2023-06-24T04:41:40;30.43;;;22.27;;
71959;SDS011;59832;51.146;14.024;2023-06-24T04:44:07;33.83;;;23.53;;
71959;SDS011;59832;51.146;14.024;2023-06-24T04:46:33;37.70;;;23.87;;
71959;SDS011;59832;51.146;14.024;2023-06-24T04:49:01;32.85;;;22.83;;
71959;SDS011;59832;51.146;14.024;2023-06-24T04:51:27;30.83;;;23.30;;
71959;SDS011;59832;51.146;14.024;2023-06-24T04:53:54;34.77;;;22.50;;
71959;SDS011;59832;51.146;14.024;2023-06-24T04:56:21;30.85;;;22.33;;
71959;SDS011;59832;51.146;14.024;2023-06-24T04:58:47;30.58;;;21.95;;
71959;SDS011;59832;51.146;14.024;2023-06-24T05:01:14;30.15;;;22.27;;
71959;SDS011;59832;51.146;14.024;2023-06-24T05:03:40;28.30;;;21.00;;
71959;SDS011;59832;51.146;14.024;2023-06-24T05:06:07;26.17;;;20.93;;
71959;SDS011;59832;51.146;14.024;2023-06-24T05:08:33;31.67;;;20.70;;
71959;SDS011;59832;51.146;14.024;2023-06-24T05:11:00;33.30;;;21.03;;
71959;SDS011;59832;51.146;14.024;2023-06-24T05:13:27;35.23;;;22.07;;
71959;SDS011;59832;51.146;14.024;2023-06-24T05:15:54;26.80;;;20.15;;
71959;SDS011;59832;51.146;14.024;2023-06-24T05:18:20;29.07;;;20.90;;
71959;SDS011;59832;51.146;14.024;2023-06-24T05:20:46;29.50;;;20.70;;
71959;SDS011;59832;51.146;14.024;2023-06-24T05:23:13;29.37;;;21.17;;
71959;SDS011;59832;51.146;14.024;2023-06-24T05:25:39;25.80;;;19.53;;
71959;SDS011;59832;51.146;14.024;2023-06-24T05:28:06;30.97;;;22.13;;
71959;SDS011;59832;51.146;14.024;2023-06-24T05:30:32;29.97;;;21.70;;
71959;SDS011;59832;51.146;14.024;2023-06-24T05:32:59;28.87;;;20.00;;
71959;SDS011;59832;51.146;14.024;2023-06-24T05:35:25;28.83;;;20.73;;
71959;SDS011;59832;51.146;14.024;2023-06-24T05:37:52;28.77;;;19.30;;
71959;SDS011;59832;51.146;14.024;2023-06-24T05:40:18;25.63;;;19.47;;
71959;SDS011;59832;51.146;14.024;2023-06-24T05:42:44;24.10;;;18.77;;
71959;SDS011;59832;51.146;14.024;2023-06-24T05:45:11;24.33;;;18.93;;
71959;SDS011;59832;51.146;14.024;2023-06-24T05:47:37;27.40;;;17.00;;
71959;SDS011;59832;51.146;14.024;2023-06-24T05:50:04;25.50;;;17.92;;
71959;SDS011;59832;51.146;14.024;2023-06-24T05:52:31;22.70;;;17.35;;
71959;SDS011;59832;51.146;14.024;2023-06-24T05:54:58;26.87;;;18.73;;
71959;SDS011;59832;51.146;14.024;2023-06-24T05:57:24;22.93;;;17.83;;
71959;SDS011;59832;51.146;14.024;2023-06-24T05:59:51;21.73;;;17.65;;
71959;SDS011;59832;51.146;14.024;2023-06-24T06:02:17;26.33;;;18.63;;
71959;SDS011;59832;51.146;14.024;2023-06-24T06:04:44;24.90;;;18.58;;
71959;SDS011;59832;51.146;14.024;2023-06-24T06:07:10;28.97;;;18.20;;
71959;SDS011;59832;51.146;14.024;2023-06-24T06:09:37;21.50;;;16.75;;
71959;SDS011;59832;51.146;14.024;2023-06-24T06:12:03;19.02;;;16.00;;
71959;SDS011;59832;51.146;14.024;2023-06-24T06:14:30;21.45;;;16.40;;
71959;SDS011;59832;51.146;14.024;2023-06-24T06:16:57;20.33;;;16.50;;
71959;SDS011;59832;51.146;14.024;2023-06-24T06:19:23;28.73;;;17.57;;
71959;SDS011;59832;51.146;14.024;2023-06-24T06:21:50;23.43;;;16.57;;
71959;SDS011;59832;51.146;14.024;2023-06-24T06:24:17;23.35;;;16.40;;
71959;SDS011;59832;51.146;14.024;2023-06-24T06:26:44;20.80;;;16.43;;
71959;SDS011;59832;51.146;14.024;2023-06-24T06:29:10;26.15;;;16.42;;
71959;SDS011;59832;51.146;14.024;2023-06-24T06:31:37;21.55;;;15.95;;
71959;SDS011;59832;51.146;14.024;2023-06-24T06:34:04;22.00;;;16.25;;
71959;SDS011;59832;51.146;14.024;2023-06-24T06:36:30;26.73;;;17.63;;
71959;SDS011;59832;51.146;14.024;2023-06-24T06:38:57;25.97;;;18.13;;
71959;SDS011;59832;51.146;14.024;2023-06-24T06:41:23;27.43;;;19.00;;
71959;SDS011;59832;51.146;14.024;2023-06-24T06:43:51;28.33;;;18.25;;
71959;SDS011;59832;51.146;14.024;2023-06-24T06:48:44;25.02;;;18.13;;
71959;SDS011;59832;51.146;14.024;2023-06-24T06:51:11;33.63;;;19.80;;
71959;SDS011;59832;51.146;14.024;2023-06-24T06:53:38;30.92;;;20.58;;
71959;SDS011;59832;51.146;14.024;2023-06-24T06:56:05;35.97;;;19.25;;
71959;SDS011;59832;51.146;14.024;2023-06-24T06:58:32;33.27;;;21.90;;
71959;SDS011;59832;51.146;14.024;2023-06-24T07:00:58;33.88;;;21.63;;
71959;SDS011;59832;51.146;14.024;2023-06-24T07:03:27;34.83;;;21.63;;
71959;SDS011;59832;51.146;14.024;2023-06-24T07:05:54;37.80;;;22.55;;
71959;SDS011;59832;51.146;14.024;2023-06-24T07:08:21;32.17;;;21.37;;
71959;SDS011;59832;51.146;14.024;2023-06-24T07:10:47;29.65;;;21.30;;
71959;SDS011;59832;51.146;14.024;2023-06-24T07:13:14;38.43;;;22.93;;
71959;SDS011;59832;51.146;14.024;2023-06-24T07:15:40;40.50;;;23.77;;
71959;SDS011;59832;51.146;14.024;2023-06-24T07:18:07;36.58;;;22.05;;
71959;SDS011;59832;51.146;14.024;2023-06-24T07:20:33;38.77;;;22.27;;
71959;SDS011;59832;51.146;14.024;2023-06-24T07:23:00;36.73;;;21.33;;
71959;SDS011;59832;51.146;14.024;2023-06-24T07:25:26;32.47;;;20.30;;
71959;SDS011;59832;51.146;14.024;2023-06-24T07:27:54;36.25;;;21.48;;
71959;SDS011;59832;51.146;14.024;2023-06-24T07:30:21;34.60;;;20.70;;
71959;SDS011;59832;51.146;14.024;2023-06-24T07:32:47;32.83;;;20.05;;
71959;SDS011;59832;51.146;14.024;2023-06-24T07:35:14;34.72;;;21.73;;
71959;SDS011;59832;51.146;14.024;2023-06-24T07:37:42;33.83;;;22.30;;
71959;SDS011;59832;51.146;14.024;2023-06-24T07:40:08;37.75;;;22.42;;
71959;SDS011;59832;51.146;14.024;2023-06-24T07:42:35;38.15;;;22.33;;
71959;SDS011;59832;51.146;14.024;2023-06-24T07:45:01;35.60;;;21.80;;
71959;SDS011;59832;51.146;14.024;2023-06-24T07:47:28;34.63;;;21.25;;
71959;SDS011;59832;51.146;14.024;2023-06-24T07:49:54;32.13;;;19.70;;
71959;SDS011;59832;51.146;14.024;2023-06-24T07:52:21;35.53;;;21.53;;
71959;SDS011;59832;51.146;14.024;2023-06-24T07:54:47;30.30;;;19.23;;
71959;SDS011;59832;51.146;14.024;2023-06-24T07:57:14;20.50;;;16.10;;
71959;SDS011;59832;51.146;14.024;2023-06-24T07:59:40;19.50;;;15.02;;
71959;SDS011;59832;51.146;14.024;2023-06-24T08:04:34;22.83;;;16.10;;
71959;SDS011;59832;51.146;14.024;2023-06-24T08:07:00;19.10;;;14.23;;
71959;SDS011;59832;51.146;14.024;2023-06-24T08:09:28;21.00;;;14.90;;
71959;SDS011;59832;51.146;14.024;2023-06-24T08:11:55;21.10;;;15.73;;
71959;SDS011;59832;51.146;14.024;2023-06-24T08:14:21;21.93;;;16.73;;
71959;SDS011;59832;51.146;14.024;2023-06-24T08:16:47;21.67;;;16.90;;
71959;SDS011;59832;51.146;14.024;2023-06-24T08:19:14;20.57;;;16.30;;
71959;SDS011;59832;51.146;14.024;2023-06-24T08:21:40;22.00;;;17.77;;
71959;SDS011;59832;51.146;14.024;2023-06-24T08:24:07;21.80;;;17.33;;
71959;SDS011;59832;51.146;14.024;2023-06-24T08:26:33;24.63;;;18.93;;
71959;SDS011;59832;51.146;14.024;2023-06-24T08:29:00;25.57;;;21.33;;
71959;SDS011;59832;51.146;14.024;2023-06-24T08:31:29;34.10;;;24.70;;
71959;SDS011;59832;51.146;14.024;2023-06-24T08:33:59;36.67;;;24.63;;
71959;SDS011;59832;51.146;14.024;2023-06-24T08:36:27;36.50;;;25.50;;
71959;SDS011;59832;51.146;14.024;2023-06-24T08:38:54;35.25;;;25.05;;
71959;SDS011;59832;51.146;14.024;2023-06-24T08:41:21;38.40;;;24.45;;
71959;SDS011;59832;51.146;14.024;2023-06-24T08:43:48;35.75;;;24.50;;
71959;SDS011;59832;51.146;14.024;2023-06-24T08:46:15;31.60;;;23.55;;
71959;SDS011;59832;51.146;14.024;2023-06-24T08:48:45;30.42;;;22.30;;
71959;SDS011;59832;51.146;14.024;2023-06-24T08:51:14;31.25;;;21.45;;
71959;SDS011;59832;51.146;14.024;2023-06-24T08:53:44;28.70;;;21.63;;
71959;SDS011;59832;51.146;14.024;2023-06-24T08:56:11;28.52;;;20.58;;
71959;SDS011;59832;51.146;14.024;2023-06-24T08:58:40;27.10;;;19.70;;
71959;SDS011;59832;51.146;14.024;2023-06-24T09:01:06;26.20;;;18.92;;
71959;SDS011;59832;51.146;14.024;2023-06-24T09:03:34;25.13;;;18.23;;
71959;SDS011;59832;51.146;14.024;2023-06-24T09:06:02;21.95;;;17.90;;
71959;SDS011;59832;51.146;14.024;2023-06-24T09:08:29;21.85;;;17.17;;
71959;SDS011;59832;51.146;14.024;2023-06-24T09:10:55;21.08;;;16.52;;
71959;SDS011;59832;51.146;14.024;2023-06-24T09:13:34;21.73;;;15.40;;
71959;SDS011;59832;51.146;14.024;2023-06-24T09:16:14;23.42;;;15.57;;
71959;SDS011;59832;51.146;14.024;2023-06-24T09:18:46;19.77;;;15.45;;
71959;SDS011;59832;51.146;14.024;2023-06-24T09:21:14;24.90;;;15.98;;
71959;SDS011;59832;51.146;14.024;2023-06-24T09:23:50;22.25;;;15.23;;
71959;SDS011;59832;51.146;14.024;2023-06-24T09:26:18;20.42;;;15.25;;
71959;SDS011;59832;51.146;14.024;2023-06-24T09:28:48;15.97;;;13.63;;
71959;SDS011;59832;51.146;14.024;2023-06-24T09:31:15;17.48;;;13.02;;
71959;SDS011;59832;51.146;14.024;2023-06-24T09:33:46;18.05;;;13.05;;
71959;SDS011;59832;51.146;14.024;2023-06-24T09:36:13;16.98;;;11.90;;
71959;SDS011;59832;51.146;14.024;2023-06-24T09:38:41;18.65;;;11.88;;
71959;SDS011;59832;51.146;14.024;2023-06-24T09:41:11;17.38;;;11.68;;
71959;SDS011;59832;51.146;14.024;2023-06-24T09:43:40;14.70;;;11.35;;
71959;SDS011;59832;51.146;14.024;2023-06-24T09:46:09;15.20;;;11.30;;
71959;SDS011;59832;51.146;14.024;2023-06-24T09:48:35;14.65;;;11.52;;
71959;SDS011;59832;51.146;14.024;2023-06-24T09:51:03;19.98;;;11.00;;
71959;SDS011;59832;51.146;14.024;2023-06-24T09:53:33;12.85;;;10.25;;
71959;SDS011;59832;51.146;14.024;2023-06-24T09:56:01;13.43;;;9.60;;
71959;SDS011;59832;51.146;14.024;2023-06-24T09:58:32;10.88;;;8.50;;
71959;SDS011;59832;51.146;14.024;2023-06-24T10:01:02;9.43;;;8.43;;
71959;SDS011;59832;51.146;14.024;2023-06-24T10:03:36;9.75;;;7.22;;
71959;SDS011;59832;51.146;14.024;2023-06-24T10:06:05;7.45;;;6.75;;
71959;SDS011;59832;51.146;14.024;2023-06-24T10:08:31;6.63;;;5.93;;
71959;SDS011;59832;51.146;14.024;2023-06-24T10:10:58;8.07;;;6.32;;
71959;SDS011;59832;51.146;14.024;2023-06-24T10:13:25;6.53;;;6.00;;
71959;SDS011;59832;51.146;14.024;2023-06-24T10:15:52;8.55;;;6.00;;
71959;SDS011;59832;51.146;14.024;2023-06-24T10:20:57;6.82;;;6.18;;
71959;SDS011;59832;51.146;14.024;2023-06-24T10:26:11;7.00;;;5.72;;
71959;SDS011;59832;51.146;14.024;2023-06-24T10:37:01;7.05;;;5.80;;
71959;SDS011;59832;51.146;14.024;2023-06-24T10:47:36;10.23;;;5.97;;
71959;SDS011;59832;51.146;14.024;2023-06-24T10:50:05;5.70;;;5.20;;
71959;SDS011;59832;51.146;14.024;2023-06-24T10:52:34;5.47;;;4.97;;
71959;SDS011;59832;51.146;14.024;2023-06-24T10:55:04;6.40;;;4.95;;
71959;SDS011;59832;51.146;14.024;2023-06-24T10:57:30;5.47;;;4.65;;
71959;SDS011;59832;51.146;14.024;2023-06-24T10:59:57;6.20;;;4.70;;
71959;SDS011;59832;51.146;14.024;2023-06-24T11:02:24;5.38;;;4.55;;
71959;SDS011;59832;51.146;14.024;2023-06-24T11:04:56;5.20;;;4.40;;
71959;SDS011;59832;51.146;14.024;2023-06-24T11:07:27;5.32;;;4.40;;
71959;SDS011;59832;51.146;14.024;2023-06-24T11:09:57;4.45;;;4.05;;
71959;SDS011;59832;51.146;14.024;2023-06-24T11:12:25;5.78;;;4.00;;
71959;SDS011;59832;51.146;14.024;2023-06-24T11:15:00;4.45;;;4.05;;
71959;SDS011;59832;51.146;14.024;2023-06-24T11:17:28;4.97;;;4.43;;
71959;SDS011;59832;51.146;14.024;2023-06-24T11:19:56;7.90;;;4.72;;
71959;SDS011;59832;51.146;14.024;2023-06-24T11:22:24;4.97;;;4.53;;
71959;SDS011;59832;51.146;14.024;2023-06-24T11:24:51;6.55;;;4.50;;
71959;SDS011;59832;51.146;14.024;2023-06-24T11:27:25;4.97;;;4.57;;
71959;SDS011;59832;51.146;14.024;2023-06-24T11:29:55;6.35;;;4.55;;
71959;SDS011;59832;51.146;14.024;2023-06-24T11:32:40;4.43;;;4.13;;
71959;SDS011;59832;51.146;14.024;2023-06-24T11:35:09;4.78;;;4.38;;
71959;SDS011;59832;51.146;14.024;2023-06-24T11:37:37;4.72;;;4.32;;
71959;SDS011;59832;51.146;14.024;2023-06-24T11:40:04;4.60;;;3.97;;
71959;SDS011;59832;51.146;14.024;2023-06-24T11:42:35;6.55;;;4.45;;
71959;SDS011;59832;51.146;14.024;2023-06-24T11:45:03;4.88;;;4.32;;
71959;SDS011;59832;51.146;14.024;2023-06-24T11:47:32;6.05;;;5.47;;
71959;SDS011;59832;51.146;14.024;2023-06-24T11:50:00;6.60;;;5.95;;
71959;SDS011;59832;51.146;14.024;2023-06-24T11:55:18;8.73;;;5.65;;
71959;SDS011;59832;51.146;14.024;2023-06-24T11:58:08;8.43;;;7.63;;
71959;SDS011;59832;51.146;14.024;2023-06-24T12:00:35;8.98;;;8.07;;
71959;SDS011;59832;51.146;14.024;2023-06-24T12:03:05;8.00;;;7.30;;
71959;SDS011;59832;51.146;14.024;2023-06-24T12:05:37;10.13;;;5.95;;
71959;SDS011;59832;51.146;14.024;2023-06-24T12:08:07;10.48;;;8.27;;
71959;SDS011;59832;51.146;14.024;2023-06-24T12:10:35;7.18;;;6.00;;
71959;SDS011;59832;51.146;14.024;2023-06-24T12:13:03;19.90;;;13.63;;
71959;SDS011;59832;51.146;14.024;2023-06-24T12:15:35;11.52;;;8.75;;
71959;SDS011;59832;51.146;14.024;2023-06-24T12:18:02;6.90;;;6.20;;
71959;SDS011;59832;51.146;14.024;2023-06-24T12:20:29;6.47;;;5.88;;
71959;SDS011;59832;51.146;14.024;2023-06-24T12:23:01;7.97;;;6.25;;
71959;SDS011;59832;51.146;14.024;2023-06-24T12:25:28;10.30;;;8.60;;
71959;SDS011;59832;51.146;14.024;2023-06-24T12:27:54;7.72;;;6.97;;
71959;SDS011;59832;51.146;14.024;2023-06-24T12:30:21;7.88;;;5.47;;
71959;SDS011;59832;51.146;14.024;2023-06-24T12:32:51;7.68;;;5.93;;
71959;SDS011;59832;51.146;14.024;2023-06-24T12:35:18;7.10;;;6.40;;
71959;SDS011;59832;51.146;14.024;2023-06-24T12:37:46;10.00;;;7.65;;
71959;SDS011;59832;51.146;14.024;2023-06-24T12:40:14;6.35;;;5.75;;
71959;SDS011;59832;51.146;14.024;2023-06-24T12:42:40;10.25;;;9.20;;
71959;SDS011;59832;51.146;14.024;2023-06-24T12:45:07;8.60;;;7.57;;
71959;SDS011;59832;51.146;14.024;2023-06-24T12:50:00;6.15;;;5.57;;
71959;SDS011;59832;51.146;14.024;2023-06-24T12:52:27;10.88;;;6.85;;
71959;SDS011;59832;51.146;14.024;2023-06-24T12:54:53;6.65;;;6.03;;
71959;SDS011;59832;51.146;14.024;2023-06-24T12:57:20;6.68;;;5.93;;
71959;SDS011;59832;51.146;14.024;2023-06-24T12:59:46;10.40;;;5.60;;
71959;SDS011;59832;51.146;14.024;2023-06-24T13:02:13;5.55;;;4.95;;
71959;SDS011;59832;51.146;14.024;2023-06-24T13:04:39;7.93;;;6.63;;
71959;SDS011;59832;51.146;14.024;2023-06-24T13:07:06;8.95;;;5.32;;
71959;SDS011;59832;51.146;14.024;2023-06-24T13:09:33;7.43;;;5.93;;
71959;SDS011;59832;51.146;14.024;2023-06-24T13:12:00;6.65;;;5.88;;
71959;SDS011;59832;51.146;14.024;2023-06-24T13:14:26;10.27;;;5.38;;
71959;SDS011;59832;51.146;14.024;2023-06-24T13:16:54;6.80;;;5.65;;
71959;SDS011;59832;51.146;14.024;2023-06-24T13:19:21;7.10;;;5.38;;
71959;SDS011;59832;51.146;14.024;2023-06-24T13:21:48;6.20;;;5.38;;
71959;SDS011;59832;51.146;14.024;2023-06-24T13:24:14;6.00;;;5.30;;
71959;SDS011;59832;51.146;14.024;2023-06-24T13:26:41;7.25;;;6.00;;
71959;SDS011;59832;51.146;14.024;2023-06-24T13:29:07;5.53;;;5.03;;
71959;SDS011;59832;51.146;14.024;2023-06-24T13:31:34;7.10;;;5.40;;
71959;SDS011;59832;51.146;14.024;2023-06-24T13:34:01;7.30;;;5.90;;
71959;SDS011;59832;51.146;14.024;2023-06-24T13:36:31;5.50;;;5.00;;
71959;SDS011;59832;51.146;14.024;2023-06-24T13:39:05;5.53;;;5.00;;
71959;SDS011;59832;51.146;14.024;2023-06-24T13:41:33;5.50;;;5.00;;
71959;SDS011;59832;51.146;14.024;2023-06-24T13:44:00;6.70;;;5.20;;
71959;SDS011;59832;51.146;14.024;2023-06-24T13:46:28;6.05;;;5.05;;
71959;SDS011;59832;51.146;14.024;2023-06-24T13:51:22;5.38;;;4.88;;
71959;SDS011;59832;51.146;14.024;2023-06-24T13:53:49;5.43;;;4.93;;
71959;SDS011;59832;51.146;14.024;2023-06-24T13:56:19;8.15;;;4.82;;
71959;SDS011;59832;51.146;14.024;2023-06-24T13:58:46;4.78;;;4.38;;
71959;SDS011;59832;51.146;14.024;2023-06-24T14:06:06;4.40;;;4.00;;
71959;SDS011;59832;51.146;14.024;2023-06-24T14:08:32;5.25;;;4.43;;
71959;SDS011;59832;51.146;14.024;2023-06-24T14:10:59;6.72;;;4.50;;
71959;SDS011;59832;51.146;14.024;2023-06-24T14:15:53;4.53;;;4.13;;
71959;SDS011;59832;51.146;14.024;2023-06-24T14:18:21;4.20;;;3.90;;
71959;SDS011;59832;51.146;14.024;2023-06-24T14:20:48;4.30;;;3.90;;
71959;SDS011;59832;51.146;14.024;2023-06-24T14:23:14;3.80;;;3.50;;
71959;SDS011;59832;51.146;14.024;2023-06-24T14:25:41;5.60;;;4.00;;
71959;SDS011;59832;51.146;14.024;2023-06-24T14:28:07;3.88;;;3.45;;
71959;SDS011;59832;51.146;14.024;2023-06-24T14:30:34;6.28;;;4.00;;
71959;SDS011;59832;51.146;14.024;2023-06-24T14:33:03;7.68;;;3.97;;
71959;SDS011;59832;51.146;14.024;2023-06-24T14:35:30;4.22;;;3.85;;
71959;SDS011;59832;51.146;14.024;2023-06-24T14:37:56;4.00;;;3.63;;
71959;SDS011;59832;51.146;14.024;2023-06-24T14:40:23;3.85;;;3.55;;
71959;SDS011;59832;51.146;14.024;2023-06-24T14:42:49;4.93;;;3.95;;
71959;SDS011;59832;51.146;14.024;2023-06-24T14:45:16;4.00;;;3.60;;
71959;SDS011;59832;51.146;14.024;2023-06-24T14:47:42;3.72;;;3.42;;
71959;SDS011;59832;51.146;14.024;2023-06-24T14:50:09;3.80;;;3.40;;
71959;SDS011;59832;51.146;14.024;2023-06-24T14:52:35;3.75;;;3.45;;
71959;SDS011;59832;51.146;14.024;2023-06-24T14:55:02;4.30;;;3.90;;
71959;SDS011;59832;51.146;14.024;2023-06-24T14:57:28;4.38;;;3.85;;
71959;SDS011;59832;51.146;14.024;2023-06-24T14:59:55;3.80;;;3.50;;
71959;SDS011;59832;51.146;14.024;2023-06-24T15:02:21;3.70;;;3.40;;
71959;SDS011;59832;51.146;14.024;2023-06-24T15:04:48;4.95;;;4.20;;
71959;SDS011;59832;51.146;14.024;2023-06-24T15:07:14;8.82;;;5.18;;
71959;SDS011;59832;51.146;14.024;2023-06-24T15:09:41;4.57;;;4.18;;
71959;SDS011;59832;51.146;14.024;2023-06-24T15:12:07;4.88;;;3.60;;
71959;SDS011;59832;51.146;14.024;2023-06-24T15:14:34;2.92;;;2.72;;
71959;SDS011;59832;51.146;14.024;2023-06-24T15:17:00;3.20;;;2.97;;
71959;SDS011;59832;51.146;14.024;2023-06-24T15:19:27;3.25;;;3.05;;
71959;SDS011;59832;51.146;14.024;2023-06-24T15:21:53;3.70;;;3.40;;
71959;SDS011;59832;51.146;14.024;2023-06-24T15:24:20;4.00;;;3.67;;
71959;SDS011;59832;51.146;14.024;2023-06-24T15:26:46;3.78;;;3.45;;
71959;SDS011;59832;51.146;14.024;2023-06-24T15:29:12;3.60;;;3.05;;
71959;SDS011;59832;51.146;14.024;2023-06-24T15:31:39;5.15;;;3.13;;
71959;SDS011;59832;51.146;14.024;2023-06-24T15:34:06;3.35;;;3.08;;
71959;SDS011;59832;51.146;14.024;2023-06-24T15:36:32;3.70;;;3.40;;
71959;SDS011;59832;51.146;14.024;2023-06-24T15:38:58;3.50;;;2.92;;
71959;SDS011;59832;51.146;14.024;2023-06-24T15:41:25;4.20;;;3.15;;
71959;SDS011;59832;51.146;14.024;2023-06-24T15:43:51;4.85;;;3.33;;
71959;SDS011;59832;51.146;14.024;2023-06-24T15:46:18;5.30;;;3.22;;
71959;SDS011;59832;51.146;14.024;2023-06-24T15:48:44;3.60;;;3.38;;
71959;SDS011;59832;51.146;14.024;2023-06-24T15:51:11;6.28;;;3.15;;
71959;SDS011;59832;51.146;14.024;2023-06-24T15:53:37;3.72;;;3.42;;
71959;SDS011;59832;51.146;14.024;2023-06-24T15:56:03;4.75;;;3.40;;
71959;SDS011;59832;51.146;14.024;2023-06-24T15:58:30;8.35;;;3.55;;
71959;SDS011;59832;51.146;14.024;2023-06-24T16:00:56;3.85;;;3.55;;
71959;SDS011;59832;51.146;14.024;2023-06-24T16:03:23;3.70;;;3.40;;
71959;SDS011;59832;51.146;14.024;2023-06-24T16:05:49;4.00;;;3.40;;
71959;SDS011;59832;51.146;14.024;2023-06-24T16:08:16;3.50;;;3.20;;
71959;SDS011;59832;51.146;14.024;2023-06-24T16:10:42;3.22;;;3.03;;
71959;SDS011;59832;51.146;14.024;2023-06-24T16:13:10;4.28;;;3.97;;
71959;SDS011;59832;51.146;14.024;2023-06-24T16:15:39;3.70;;;3.40;;
71959;SDS011;59832;51.146;14.024;2023-06-24T16:18:05;3.70;;;3.40;;
71959;SDS011;59832;51.146;14.024;2023-06-24T16:20:32;6.68;;;3.53;;
71959;SDS011;59832;51.146;14.024;2023-06-24T16:25:28;3.90;;;3.20;;
71959;SDS011;59832;51.146;14.024;2023-06-24T16:27:55;3.90;;;3.60;;
71959;SDS011;59832;51.146;14.024;2023-06-24T16:30:22;4.05;;;3.15;;
71959;SDS011;59832;51.146;14.024;2023-06-24T16:32:49;4.13;;;3.28;;
71959;SDS011;59832;51.146;14.024;2023-06-24T16:37:42;3.67;;;3.38;;
71959;SDS011;59832;51.146;14.024;2023-06-24T16:40:08;3.50;;;3.30;;
71959;SDS011;59832;51.146;14.024;2023-06-24T16:42:35;3.53;;;3.22;;
71959;SDS011;59832;51.146;14.024;2023-06-24T16:45:01;3.47;;;3.28;;
71959;SDS011;59832;51.146;14.024;2023-06-24T16:49:55;6.80;;;3.40;;
71959;SDS011;59832;51.146;14.024;2023-06-24T16:52:21;5.93;;;3.58;;
71959;SDS011;59832;51.146;14.024;2023-06-24T16:54:48;3.50;;;3.30;;
71959;SDS011;59832;51.146;14.024;2023-06-24T16:57:14;3.33;;;3.13;;
71959;SDS011;59832;51.146;14.024;2023-06-24T16:59:41;3.67;;;3.40;;
71959;SDS011;59832;51.146;14.024;2023-06-24T17:02:07;3.58;;;3.28;;
71959;SDS011;59832;51.146;14.024;2023-06-24T17:04:33;3.63;;;3.33;;
71959;SDS011;59832;51.146;14.024;2023-06-24T17:07:00;3.60;;;3.30;;
71959;SDS011;59832;51.146;14.024;2023-06-24T17:09:26;3.58;;;3.28;;
71959;SDS011;59832;51.146;14.024;2023-06-24T17:11:53;4.05;;;3.75;;
71959;SDS011;59832;51.146;14.024;2023-06-24T17:14:19;3.70;;;3.40;;
71959;SDS011;59832;51.146;14.024;2023-06-24T17:16:46;5.78;;;3.22;;
71959;SDS011;59832;51.146;14.024;2023-06-24T17:19:12;3.63;;;3.33;;
71959;SDS011;59832;51.146;14.024;2023-06-24T17:21:40;3.65;;;3.35;;
71959;SDS011;59832;51.146;14.024;2023-06-24T17:24:06;3.50;;;3.20;;
71959;SDS011;59832;51.146;14.024;2023-06-24T17:26:33;4.43;;;3.50;;
71959;SDS011;59832;51.146;14.024;2023-06-24T17:28:59;4.95;;;3.50;;
71959;SDS011;59832;51.146;14.024;2023-06-24T17:31:26;4.68;;;4.28;;
71959;SDS011;59832;51.146;14.024;2023-06-24T17:33:52;4.13;;;3.83;;
71959;SDS011;59832;51.146;14.024;2023-06-24T17:36:19;5.47;;;3.88;;
71959;SDS011;59832;51.146;14.024;2023-06-24T17:38:45;4.53;;;4.13;;
71959;SDS011;59832;51.146;14.024;2023-06-24T17:41:12;4.10;;;3.80;;
71959;SDS011;59832;51.146;14.024;2023-06-24T17:43:38;5.70;;;3.85;;
71959;SDS011;59832;51.146;14.024;2023-06-24T17:46:05;4.15;;;3.80;;
71959;SDS011;59832;51.146;14.024;2023-06-24T17:50:58;3.60;;;3.30;;
71959;SDS011;59832;51.146;14.024;2023-06-24T17:53:25;3.70;;;3.40;;
71959;SDS011;59832;51.146;14.024;2023-06-24T17:55:51;4.13;;;3.20;;
71959;SDS011;59832;51.146;14.024;2023-06-24T17:58:18;3.83;;;3.53;;
71959;SDS011;59832;51.146;14.024;2023-06-24T18:00:45;3.63;;;3.20;;
71959;SDS011;59832;51.146;14.024;2023-06-24T18:03:12;4.03;;;3.72;;
71959;SDS011;59832;51.146;14.024;2023-06-24T18:05:38;3.92;;;3.50;;
71959;SDS011;59832;51.146;14.024;2023-06-24T18:08:05;3.42;;;3.13;;
71959;SDS011;59832;51.146;14.024;2023-06-24T18:10:31;3.95;;;3.13;;
71959;SDS011;59832;51.146;14.024;2023-06-24T18:12:59;3.42;;;3.22;;
71959;SDS011;59832;51.146;14.024;2023-06-24T18:15:26;3.55;;;3.30;;
71959;SDS011;59832;51.146;14.024;2023-06-24T18:17:53;4.03;;;3.47;;
71959;SDS011;59832;51.146;14.024;2023-06-24T18:20:19;4.22;;;3.35;;
71959;SDS011;59832;51.146;14.024;2023-06-24T18:22:46;3.53;;;3.22;;
71959;SDS011;59832;51.146;14.024;2023-06-24T18:25:12;5.13;;;3.50;;
71959;SDS011;59832;51.146;14.024;2023-06-24T18:27:39;3.40;;;3.10;;
71959;SDS011;59832;51.146;14.024;2023-06-24T18:30:08;3.17;;;2.88;;
71959;SDS011;59832;51.146;14.024;2023-06-24T18:32:36;3.60;;;3.40;;
71959;SDS011;59832;51.146;14.024;2023-06-24T18:35:02;3.33;;;3.08;;
71959;SDS011;59832;51.146;14.024;2023-06-24T18:37:29;3.50;;;3.20;;
71959;SDS011;59832;51.146;14.024;2023-06-24T18:39:57;3.33;;;3.10;;
71959;SDS011;59832;51.146;14.024;2023-06-24T18:42:23;3.60;;;3.30;;
71959;SDS011;59832;51.146;14.024;2023-06-24T18:44:50;3.30;;;3.00;;
71959;SDS011;59832;51.146;14.024;2023-06-24T18:47:16;3.60;;;3.30;;
71959;SDS011;59832;51.146;14.024;2023-06-24T18:49:42;3.60;;;3.30;;
71959;SDS011;59832;51.146;14.024;2023-06-24T18:52:09;3.42;;;3.13;;
71959;SDS011;59832;51.146;14.024;2023-06-24T18:54:35;3.50;;;3.20;;
71959;SDS011;59832;51.146;14.024;2023-06-24T18:57:02;3.80;;;3.10;;
71959;SDS011;59832;51.146;14.024;2023-06-24T18:59:28;6.40;;;3.38;;
71959;SDS011;59832;51.146;14.024;2023-06-24T19:01:55;3.90;;;3.50;;
71959;SDS011;59832;51.146;14.024;2023-06-24T19:04:21;3.80;;;3.50;;
71959;SDS011;59832;51.146;14.024;2023-06-24T19:06:48;3.97;;;3.33;;
71959;SDS011;59832;51.146;14.024;2023-06-24T19:09:14;3.70;;;3.40;;
71959;SDS011;59832;51.146;14.024;2023-06-24T19:11:42;4.38;;;3.60;;
71959;SDS011;59832;51.146;14.024;2023-06-24T19:14:08;3.55;;;3.25;;
71959;SDS011;59832;51.146;14.024;2023-06-24T19:16:35;3.38;;;3.15;;